Time;durP1;ratioP1;P1;durP2;ratioP2;P2;SDS_P1;SDS_P2;PMS_P1;PMS_P2;Temp;Humidity;BMP_temperature;BMP_pressure;BME280_temperature;BME280_humidity;BME280_pressure;Samples;Min_cycle;Max_cycle;Signal;HPM_P1;HPM_P2
2023/10/07 00:04:38;;;;;;;7.75;4.60;;;;;;;;;;10332863;28;20087;-64
2023/10/07 00:09:41;;;;;;;7.82;4.75;;;;;;;;;;10331816;28;20070;-62
2023/10/07 00:14:42;;;;;;;7.55;4.15;;;;;;;;;;10331978;28;20180;-62
2023/10/07 00:19:47;;;;;;;10.57;5.05;;;;;;;;;;10331691;28;20161;-61
2023/10/07 00:24:48;;;;;;;12.20;4.70;;;;;;;;;;10331394;28;20030;-63
2023/10/07 00:29:54;;;;;;;8.63;4.80;;;;;;;;;;10330950;28;20275;-62
2023/10/07 00:34:59;;;;;;;10.68;4.05;;;;;;;;;;10331448;28;20038;-62
2023/10/07 00:40:12;;;;;;;8.35;4.85;;;;;;;;;;10331621;28;20026;-62
2023/10/07 00:45:16;;;;;;;7.80;4.30;;;;;;;;;;10330448;28;20476;-61
2023/10/07 00:50:17;;;;;;;7.75;4.15;;;;;;;;;;10330152;28;20394;-61
2023/10/07 00:55:19;;;;;;;8.43;4.47;;;;;;;;;;10328082;28;20166;-62
2023/10/07 01:05:33;;;;;;;7.60;4.43;;;;;;;;;;10330534;28;20023;-61
2023/10/07 01:10:38;;;;;;;7.03;4.03;;;;;;;;;;10329000;28;20534;-61
2023/10/07 01:15:39;;;;;;;6.00;4.25;;;;;;;;;;10329827;28;20030;-64
2023/10/07 01:25:53;;;;;;;11.52;4.63;;;;;;;;;;10329555;28;20038;-64
2023/10/07 01:31:18;;;;;;;6.57;4.55;;;;;;;;;;10328637;28;20072;-64
2023/10/07 01:36:24;;;;;;;6.63;4.60;;;;;;;;;;10328048;28;20545;-63
2023/10/07 01:41:27;;;;;;;10.30;4.80;;;;;;;;;;10327809;28;20109;-62
2023/10/07 01:46:30;;;;;;;17.90;5.15;;;;;;;;;;10327668;28;20382;-62
2023/10/07 01:51:31;;;;;;;8.05;4.72;;;;;;;;;;10327874;28;20509;-62
2023/10/07 01:56:33;;;;;;;6.95;4.13;;;;;;;;;;10327713;28;20026;-63
2023/10/07 02:01:35;;;;;;;11.43;4.60;;;;;;;;;;10327009;28;20145;-62
2023/10/07 02:06:49;;;;;;;13.18;4.95;;;;;;;;;;10328024;28;20142;-62
2023/10/07 02:12:09;;;;;;;10.65;4.38;;;;;;;;;;10326296;28;20563;-62
2023/10/07 02:17:12;;;;;;;6.55;4.38;;;;;;;;;;10327629;28;20034;-61
2023/10/07 02:22:22;;;;;;;7.05;4.30;;;;;;;;;;10326610;28;20401;-61
2023/10/07 02:27:25;;;;;;;6.85;4.32;;;;;;;;;;10327349;28;20030;-61
2023/10/07 02:32:26;;;;;;;6.65;3.78;;;;;;;;;;10326456;28;20406;-61
2023/10/07 02:37:31;;;;;;;5.90;4.20;;;;;;;;;;10326589;28;20038;-61
2023/10/07 02:42:31;;;;;;;10.10;4.35;;;;;;;;;;10327088;28;20030;-61
2023/10/07 02:47:32;;;;;;;7.97;4.30;;;;;;;;;;10326831;28;20043;-61
2023/10/07 02:52:36;;;;;;;5.70;4.20;;;;;;;;;;10326359;28;20039;-61
2023/10/07 02:57:39;;;;;;;7.70;4.28;;;;;;;;;;10327031;28;20034;-61
2023/10/07 03:02:48;;;;;;;7.25;4.20;;;;;;;;;;10326291;28;20368;-61
2023/10/07 03:07:49;;;;;;;8.07;4.25;;;;;;;;;;10326522;28;20030;-61
2023/10/07 03:12:56;;;;;;;8.50;4.20;;;;;;;;;;10326709;28;20544;-62
2023/10/07 03:17:57;;;;;;;7.38;4.20;;;;;;;;;;10326193;28;20061;-63
2023/10/07 03:23:14;;;;;;;8.60;4.75;;;;;;;;;;10333527;28;20034;-62
2023/10/07 03:28:17;;;;;;;8.97;4.53;;;;;;;;;;10334171;28;20029;-63
2023/10/07 03:33:43;;;;;;;10.90;4.50;;;;;;;;;;10333292;28;20057;-62
2023/10/07 03:38:43;;;;;;;8.00;4.90;;;;;;;;;;10333859;28;20088;-62
2023/10/07 03:43:45;;;;;;;8.77;4.55;;;;;;;;;;10333472;28;20116;-62
2023/10/07 03:48:53;;;;;;;7.78;3.97;;;;;;;;;;10333455;28;20031;-62
2023/10/07 03:54:00;;;;;;;9.60;4.30;;;;;;;;;;10332700;28;20062;-63
2023/10/07 03:59:01;;;;;;;8.77;4.00;;;;;;;;;;10332374;28;20034;-63
2023/10/07 04:04:01;;;;;;;10.02;4.25;;;;;;;;;;10331862;28;20023;-62
2023/10/07 04:09:08;;;;;;;10.40;4.38;;;;;;;;;;10331453;28;20030;-62
2023/10/07 04:14:27;;;;;;;5.07;4.00;;;;;;;;;;10331539;28;20104;-62
2023/10/07 04:24:28;;;;;;;5.38;3.90;;;;;;;;;;10332056;28;20049;-62
2023/10/07 04:29:33;;;;;;;4.97;3.80;;;;;;;;;;10331935;28;20030;-62
2023/10/07 04:34:45;;;;;;;5.80;4.25;;;;;;;;;;10330784;28;20030;-63
2023/10/07 04:50:35;;;;;;;6.00;3.70;;;;;;;;;;10330709;28;20073;-62
2023/10/07 04:55:26;;;;;;;17.42;4.90;;;;;;;;;;10329664;28;20113;-62
2023/10/07 05:05:35;;;;;;;9.52;4.40;;;;;;;;;;10330399;28;20490;-64
2023/10/07 05:10:41;;;;;;;8.43;4.53;;;;;;;;;;10329680;28;20022;-65
2023/10/07 05:15:42;;;;;;;7.20;4.18;;;;;;;;;;10329201;28;20044;-64
2023/10/07 05:20:46;;;;;;;8.98;4.30;;;;;;;;;;10328936;28;20575;-65
2023/10/07 05:25:49;;;;;;;6.95;3.80;;;;;;;;;;10328878;28;20026;-66
2023/10/07 05:30:51;;;;;;;6.10;4.18;;;;;;;;;;10328860;28;20038;-65
2023/10/07 05:36:09;;;;;;;6.53;3.88;;;;;;;;;;10328560;28;20109;-64
2023/10/07 05:41:14;;;;;;;6.75;4.00;;;;;;;;;;10327990;28;20116;-64
2023/10/07 05:46:19;;;;;;;8.25;3.80;;;;;;;;;;10327604;28;20470;-64
2023/10/07 05:51:20;;;;;;;5.22;3.65;;;;;;;;;;10325888;28;20035;-64
2023/10/07 05:56:22;;;;;;;6.32;3.65;;;;;;;;;;10327910;28;20092;-65
2023/10/07 06:01:22;;;;;;;4.55;3.53;;;;;;;;;;10327944;28;20026;-63
2023/10/07 06:06:23;;;;;;;7.13;3.35;;;;;;;;;;10327577;28;20430;-62
2023/10/07 06:11:34;;;;;;;6.43;3.78;;;;;;;;;;10327764;28;20406;-63
2023/10/07 06:16:36;;;;;;;5.43;3.42;;;;;;;;;;10327295;28;20101;-66
2023/10/07 06:21:40;;;;;;;6.72;3.35;;;;;;;;;;10327105;28;20030;-66
2023/10/07 06:26:43;;;;;;;4.13;3.13;;;;;;;;;;10326843;28;20030;-65
2023/10/07 06:32:12;;;;;;;6.93;3.45;;;;;;;;;;10327339;28;20027;-66
2023/10/07 06:37:13;;;;;;;6.18;3.53;;;;;;;;;;10326546;28;20360;-65
2023/10/07 06:42:13;;;;;;;4.97;3.28;;;;;;;;;;10326452;28;20034;-63
2023/10/07 06:47:16;;;;;;;5.53;3.05;;;;;;;;;;10326663;28;20072;-63
2023/10/07 06:52:16;;;;;;;5.03;3.70;;;;;;;;;;10326239;28;20069;-65
2023/10/07 06:57:17;;;;;;;4.65;3.10;;;;;;;;;;10332511;28;20033;-63
2023/10/07 07:02:18;;;;;;;4.85;3.50;;;;;;;;;;10334184;28;20033;-64
2023/10/07 07:07:19;;;;;;;4.28;3.00;;;;;;;;;;10334708;28;20040;-65
2023/10/07 07:12:22;;;;;;;8.40;3.33;;;;;;;;;;10333464;28;20058;-66
2023/10/07 07:17:29;;;;;;;10.68;3.03;;;;;;;;;;10334143;28;20023;-66
2023/10/07 07:22:30;;;;;;;4.53;2.80;;;;;;;;;;10333869;28;20041;-67
2023/10/07 07:27:34;;;;;;;5.07;3.40;;;;;;;;;;10334115;28;20033;-65
2023/10/07 07:32:37;;;;;;;9.45;3.00;;;;;;;;;;10332219;28;20470;-64
2023/10/07 07:37:40;;;;;;;23.83;3.30;;;;;;;;;;10333484;28;20030;-62
2023/10/07 07:42:50;;;;;;;12.02;3.60;;;;;;;;;;10332297;28;20501;-65
2023/10/07 07:47:50;;;;;;;11.55;3.80;;;;;;;;;;10331828;28;20053;-65
2023/10/07 07:52:51;;;;;;;5.40;3.25;;;;;;;;;;10331625;28;20030;-63
2023/10/07 07:57:51;;;;;;;21.67;5.63;;;;;;;;;;10331586;28;20033;-62
2023/10/07 08:02:55;;;;;;;28.23;6.10;;;;;;;;;;10331387;28;20034;-62
2023/10/07 08:07:56;;;;;;;15.50;5.75;;;;;;;;;;10331769;28;20383;-62
2023/10/07 08:12:58;;;;;;;16.58;6.22;;;;;;;;;;10331531;28;20057;-62
2023/10/07 08:17:59;;;;;;;15.35;6.35;;;;;;;;;;10331408;28;20121;-61
2023/10/07 08:23:08;;;;;;;12.77;6.30;;;;;;;;;;10330823;28;20062;-61
2023/10/07 08:28:38;;;;;;;13.68;5.95;;;;;;;;;;10331427;28;20050;-61
2023/10/07 08:33:40;;;;;;;8.55;5.57;;;;;;;;;;10329581;28;20477;-62
2023/10/07 08:38:44;;;;;;;9.18;6.00;;;;;;;;;;10330311;28;20117;-61
2023/10/07 08:43:45;;;;;;;22.25;7.32;;;;;;;;;;10330232;28;20031;-62
2023/10/07 08:48:55;;;;;;;14.60;6.95;;;;;;;;;;10330069;28;20076;-60
2023/10/07 08:54:05;;;;;;;30.83;7.75;;;;;;;;;;10330058;28;20070;-60
2023/10/07 08:59:06;;;;;;;12.23;7.07;;;;;;;;;;10330665;28;20029;-61
2023/10/07 09:04:07;;;;;;;13.63;7.57;;;;;;;;;;10330248;28;20066;-62
2023/10/07 09:09:08;;;;;;;16.88;7.50;;;;;;;;;;10328150;28;20027;-61
2023/10/07 09:14:17;;;;;;;22.30;7.93;;;;;;;;;;10328815;28;20406;-61
2023/10/07 09:19:22;;;;;;;16.02;7.57;;;;;;;;;;10329270;28;20105;-60
2023/10/07 09:24:26;;;;;;;16.98;7.20;;;;;;;;;;10329243;28;20036;-60
2023/10/07 09:29:32;;;;;;;14.13;7.65;;;;;;;;;;10328654;28;20285;-60
2023/10/07 09:34:47;;;;;;;12.38;7.57;;;;;;;;;;10328767;28;20030;-60
2023/10/07 09:39:55;;;;;;;18.35;7.22;;;;;;;;;;10328453;28;20417;-63
2023/10/07 09:45:02;;;;;;;;;;;;;;;;;;10327730;28;20030;-61
2023/10/07 09:55:43;;;;;;;13.05;6.28;;;;;;;;;;10328329;28;20426;-62
2023/10/07 10:01:05;;;;;;;9.77;6.63;;;;;;;;;;10326368;28;20033;-61
2023/10/07 10:06:33;;;;;;;11.98;6.45;;;;;;;;;;10326108;28;20023;-63
2023/10/07 10:16:57;;;;;;;9.13;6.57;;;;;;;;;;10326415;28;20038;-63
2023/10/07 10:22:13;;;;;;;9.23;5.80;;;;;;;;;;10327091;28;20383;-62
2023/10/07 10:27:17;;;;;;;8.95;5.97;;;;;;;;;;10326808;28;20109;-62
2023/10/07 10:32:28;;;;;;;9.43;5.85;;;;;;;;;;10325460;28;20085;-61
2023/10/07 10:37:30;;;;;;;8.60;6.00;;;;;;;;;;10326808;28;20027;-60
2023/10/07 10:42:42;;;;;;;8.48;5.75;;;;;;;;;;10326640;28;20520;-60
2023/10/07 10:47:52;;;;;;;10.10;6.15;;;;;;;;;;10327059;28;20037;-63
2023/10/07 10:52:54;;;;;;;8.88;5.65;;;;;;;;;;10327067;28;20038;-62
2023/10/07 10:57:54;;;;;;;11.25;5.88;;;;;;;;;;10326634;28;20030;-62
2023/10/07 11:02:56;;;;;;;9.60;5.85;;;;;;;;;;10325697;28;20478;-62
2023/10/07 11:07:56;;;;;;;7.63;5.60;;;;;;;;;;10326157;28;20073;-60
2023/10/07 11:12:57;;;;;;;8.98;5.75;;;;;;;;;;10326115;28;20050;-63
2023/10/07 11:18:12;;;;;;;9.57;5.95;;;;;;;;;;10325802;28;20030;-60
2023/10/07 11:23:15;;;;;;;11.60;6.50;;;;;;;;;;10326591;28;20085;-62
2023/10/07 11:28:22;;;;;;;11.07;6.32;;;;;;;;;;10326271;28;20037;-60
2023/10/07 11:33:24;;;;;;;9.90;5.78;;;;;;;;;;10326258;28;20062;-61
2023/10/07 11:38:25;;;;;;;8.80;6.40;;;;;;;;;;10326247;28;20076;-61
2023/10/07 11:43:27;;;;;;;9.38;6.10;;;;;;;;;;10331460;28;20030;-61
2023/10/07 11:48:30;;;;;;;14.32;6.43;;;;;;;;;;10332775;28;20288;-62
2023/10/07 11:53:31;;;;;;;11.30;6.93;;;;;;;;;;10332535;28;20394;-62
2023/10/07 11:58:32;;;;;;;15.38;6.70;;;;;;;;;;10332949;28;20018;-62
2023/10/07 12:03:34;;;;;;;17.75;7.47;;;;;;;;;;10332431;28;20493;-63
2023/10/07 12:08:35;;;;;;;17.08;6.93;;;;;;;;;;10331883;28;20038;-64
2023/10/07 12:13:35;;;;;;;9.85;6.55;;;;;;;;;;10331579;28;20502;-62
2023/10/07 12:18:36;;;;;;;10.73;6.68;;;;;;;;;;10330589;28;20018;-60
2023/10/07 12:23:38;;;;;;;10.50;6.55;;;;;;;;;;10331568;28;20033;-63
2023/10/07 12:28:39;;;;;;;9.20;6.43;;;;;;;;;;10331531;28;20085;-63
2023/10/07 12:33:40;;;;;;;11.23;6.38;;;;;;;;;;10331007;28;20533;-63
2023/10/07 12:38:41;;;;;;;13.90;7.15;;;;;;;;;;10330726;28;20085;-64
2023/10/07 12:43:42;;;;;;;10.35;6.63;;;;;;;;;;10331236;28;20041;-63
2023/10/07 12:48:44;;;;;;;12.90;7.80;;;;;;;;;;10329968;28;20032;-63
2023/10/07 12:53:47;;;;;;;21.70;7.40;;;;;;;;;;10330364;28;20026;-64
2023/10/07 12:58:48;;;;;;;12.30;8.20;;;;;;;;;;10329929;28;20033;-63
2023/10/07 13:03:51;;;;;;;16.70;8.18;;;;;;;;;;10329973;28;20026;-60
2023/10/07 13:08:53;;;;;;;11.27;7.82;;;;;;;;;;10329308;28;20444;-64
2023/10/07 13:13:56;;;;;;;14.95;8.13;;;;;;;;;;10328813;28;20225;-64
2023/10/07 13:18:57;;;;;;;17.08;8.88;;;;;;;;;;10329628;28;20038;-62
2023/10/07 13:23:58;;;;;;;14.77;8.68;;;;;;;;;;10329404;28;20065;-64
2023/10/07 13:28:59;;;;;;;14.02;8.60;;;;;;;;;;10329062;28;20084;-64
2023/10/07 13:34:04;;;;;;;12.98;8.32;;;;;;;;;;10328780;28;20058;-63
2023/10/07 13:39:15;;;;;;;11.98;8.30;;;;;;;;;;10328193;28;20030;-62
2023/10/07 13:44:17;;;;;;;14.48;8.98;;;;;;;;;;10327896;28;20041;-61
2023/10/07 13:49:17;;;;;;;12.45;8.10;;;;;;;;;;10327794;28;20453;-61
2023/10/07 13:54:38;;;;;;;12.63;8.20;;;;;;;;;;10327542;28;20037;-63
2023/10/07 13:59:40;;;;;;;11.43;8.43;;;;;;;;;;10327776;28;20033;-64
2023/10/07 14:04:40;;;;;;;11.93;8.07;;;;;;;;;;10327898;28;20029;-62
2023/10/07 14:09:41;;;;;;;11.65;8.63;;;;;;;;;;10327165;28;20045;-60
2023/10/07 14:14:43;;;;;;;11.45;7.50;;;;;;;;;;10326850;28;20046;-61
2023/10/07 14:19:45;;;;;;;11.32;8.20;;;;;;;;;;10326764;28;20042;-64
2023/10/07 14:24:45;;;;;;;17.42;10.15;;;;;;;;;;10326918;28;20390;-62
2023/10/07 14:29:46;;;;;;;14.00;8.80;;;;;;;;;;10327223;28;20023;-64
2023/10/07 14:34:47;;;;;;;13.80;9.57;;;;;;;;;;10327265;28;20497;-64
2023/10/07 14:39:51;;;;;;;15.32;9.23;;;;;;;;;;10327090;28;20031;-62
2023/10/07 14:44:52;;;;;;;16.55;9.07;;;;;;;;;;10326990;28;20042;-61
2023/10/07 14:49:52;;;;;;;15.38;8.55;;;;;;;;;;10326509;28;20022;-62
2023/10/07 14:54:54;;;;;;;11.85;8.18;;;;;;;;;;10325923;28;20030;-63
2023/10/07 14:59:55;;;;;;;11.10;8.10;;;;;;;;;;10326167;28;20395;-62
2023/10/07 15:04:56;;;;;;;15.40;8.38;;;;;;;;;;10326162;28;20042;-63
2023/10/07 15:09:57;;;;;;;13.32;8.77;;;;;;;;;;10326256;28;20081;-62
2023/10/07 15:14:58;;;;;;;15.35;10.23;;;;;;;;;;10324793;28;20046;-64
2023/10/07 15:19:59;;;;;;;10.85;8.15;;;;;;;;;;10333047;28;20030;-60
2023/10/07 15:25:01;;;;;;;12.07;8.85;;;;;;;;;;10333707;28;20034;-61
2023/10/07 15:30:02;;;;;;;15.30;9.32;;;;;;;;;;10333992;28;20122;-63
2023/10/07 15:35:07;;;;;;;20.45;9.25;;;;;;;;;;10333736;28;20030;-61
2023/10/07 15:40:09;;;;;;;14.90;7.68;;;;;;;;;;10333460;28;20028;-61
2023/10/07 15:45:13;;;;;;;10.45;7.57;;;;;;;;;;10333040;28;20026;-60
2023/10/07 15:50:15;;;;;;;12.38;8.43;;;;;;;;;;10332796;28;20513;-61
2023/10/07 15:55:19;;;;;;;11.43;7.90;;;;;;;;;;10332433;28;20390;-62
2023/10/07 16:00:19;;;;;;;13.48;8.73;;;;;;;;;;10332406;28;20383;-65
2023/10/07 16:05:20;;;;;;;16.13;8.50;;;;;;;;;;10332323;28;20041;-60
2023/10/07 16:10:20;;;;;;;10.32;8.05;;;;;;;;;;10332133;28;20057;-62
2023/10/07 16:15:21;;;;;;;11.50;8.40;;;;;;;;;;10331686;28;20069;-63
2023/10/07 16:20:22;;;;;;;11.68;8.02;;;;;;;;;;10331507;28;20038;-60
2023/10/07 16:25:23;;;;;;;15.73;8.52;;;;;;;;;;10331472;28;20030;-61
2023/10/07 16:30:24;;;;;;;10.07;8.30;;;;;;;;;;10329562;28;20034;-61
2023/10/07 16:35:24;;;;;;;16.73;7.40;;;;;;;;;;10331228;28;20046;-64
2023/10/07 16:40:25;;;;;;;10.48;7.72;;;;;;;;;;10330895;28;20031;-60
2023/10/07 16:45:26;;;;;;;12.70;8.57;;;;;;;;;;10330880;28;20037;-61
2023/10/07 16:50:27;;;;;;;13.43;7.43;;;;;;;;;;10330329;28;20073;-60
2023/10/07 16:55:28;;;;;;;17.90;7.95;;;;;;;;;;10330822;28;20031;-61
2023/10/07 17:00:28;;;;;;;15.55;8.48;;;;;;;;;;10329654;28;20042;-63
2023/10/07 17:05:33;;;;;;;11.77;8.35;;;;;;;;;;10330293;28;20031;-61
2023/10/07 17:10:39;;;;;;;12.88;7.82;;;;;;;;;;10328914;28;20030;-61
2023/10/07 17:15:43;;;;;;;11.48;7.97;;;;;;;;;;10329545;28;20049;-64
2023/10/07 17:20:43;;;;;;;11.82;7.93;;;;;;;;;;10329112;28;20026;-62
2023/10/07 17:25:45;;;;;;;11.63;7.60;;;;;;;;;;10329252;28;20039;-60
2023/10/07 17:30:46;;;;;;;11.00;8.32;;;;;;;;;;10328294;28;20064;-63
2023/10/07 17:35:47;;;;;;;12.13;8.82;;;;;;;;;;10327317;28;20040;-62
2023/10/07 17:40:48;;;;;;;13.55;9.35;;;;;;;;;;10328649;28;20059;-62
2023/10/07 17:45:48;;;;;;;19.42;9.45;;;;;;;;;;10327814;28;20266;-61
2023/10/07 17:50:51;;;;;;;22.08;9.80;;;;;;;;;;10327474;28;20049;-62
2023/10/07 17:55:53;;;;;;;26.40;10.38;;;;;;;;;;10327826;28;20070;-61
2023/10/07 18:00:53;;;;;;;15.18;10.15;;;;;;;;;;10325150;28;20031;-62
2023/10/07 18:06:04;;;;;;;17.77;9.80;;;;;;;;;;10326603;28;20031;-61
2023/10/07 18:11:05;;;;;;;17.10;9.60;;;;;;;;;;10325696;28;20053;-60
2023/10/07 18:16:06;;;;;;;16.25;8.90;;;;;;;;;;10326356;28;20041;-63
2023/10/07 18:21:06;;;;;;;19.02;9.55;;;;;;;;;;10325860;28;20031;-60
2023/10/07 18:26:07;;;;;;;16.80;9.43;;;;;;;;;;10325451;28;20213;-61
2023/10/07 18:31:13;;;;;;;17.85;9.15;;;;;;;;;;10325895;28;20069;-60
2023/10/07 18:36:14;;;;;;;19.15;9.65;;;;;;;;;;10327191;28;20042;-64
2023/10/07 18:41:15;;;;;;;23.00;9.40;;;;;;;;;;10326144;28;20026;-60
2023/10/07 18:46:16;;;;;;;14.93;8.18;;;;;;;;;;10325481;28;20489;-65
2023/10/07 18:51:16;;;;;;;18.17;9.35;;;;;;;;;;10330047;28;20031;-60
2023/10/07 18:56:17;;;;;;;20.65;8.68;;;;;;;;;;10335146;28;20026;-64
2023/10/07 19:01:19;;;;;;;17.27;8.50;;;;;;;;;;10332829;28;20029;-61
2023/10/07 19:06:20;;;;;;;15.57;8.57;;;;;;;;;;10334146;28;20053;-65
2023/10/07 19:11:21;;;;;;;21.05;8.45;;;;;;;;;;10332881;28;20053;-60
2023/10/07 19:16:22;;;;;;;14.65;8.43;;;;;;;;;;10332582;28;20022;-61
2023/10/07 19:21:23;;;;;;;16.73;8.25;;;;;;;;;;10333075;28;20042;-60
2023/10/07 19:26:24;;;;;;;18.88;8.07;;;;;;;;;;10334060;28;20493;-63
2023/10/07 19:31:24;;;;;;;22.13;8.20;;;;;;;;;;10332501;28;20360;-61
2023/10/07 19:36:25;;;;;;;20.35;8.93;;;;;;;;;;10332903;28;20027;-64
2023/10/07 19:41:26;;;;;;;18.35;8.43;;;;;;;;;;10331735;28;20069;-65
2023/10/07 19:46:27;;;;;;;17.27;8.15;;;;;;;;;;10332323;28;20034;-65
2023/10/07 19:51:27;;;;;;;24.15;8.38;;;;;;;;;;10331660;28;20041;-65
2023/10/07 19:56:29;;;;;;;21.77;9.18;;;;;;;;;;10330562;28;20081;-62
2023/10/07 20:01:29;;;;;;;25.58;9.60;;;;;;;;;;10322629;28;20030;-65
2023/10/07 20:06:30;;;;;;;20.38;9.35;;;;;;;;;;10331882;28;20026;-65
2023/10/07 20:11:31;;;;;;;20.13;8.73;;;;;;;;;;10330768;28;20054;-65
2023/10/07 20:16:31;;;;;;;19.42;9.00;;;;;;;;;;10330443;28;20470;-65
2023/10/07 20:21:33;;;;;;;14.68;9.10;;;;;;;;;;10329796;28;20173;-63
2023/10/07 20:26:33;;;;;;;16.73;8.93;;;;;;;;;;10329659;28;20037;-63
2023/10/07 20:31:34;;;;;;;16.08;9.48;;;;;;;;;;10329790;28;20386;-63
2023/10/07 20:36:35;;;;;;;17.13;9.30;;;;;;;;;;10330610;28;20045;-62
2023/10/07 20:41:36;;;;;;;16.85;10.45;;;;;;;;;;10330625;28;20038;-63
2023/10/07 20:46:37;;;;;;;19.42;9.95;;;;;;;;;;10329484;28;20023;-59
2023/10/07 20:51:37;;;;;;;25.27;10.10;;;;;;;;;;10330746;28;20041;-60
2023/10/07 20:56:38;;;;;;;20.90;10.30;;;;;;;;;;10330087;28;20434;-63
2023/10/07 21:01:38;;;;;;;22.58;10.70;;;;;;;;;;10325920;28;20367;-62
2023/10/07 21:06:39;;;;;;;17.60;9.38;;;;;;;;;;10329324;28;20467;-63
2023/10/07 21:11:40;;;;;;;17.65;10.20;;;;;;;;;;10325316;28;20487;-62
2023/10/07 21:16:40;;;;;;;19.17;10.63;;;;;;;;;;10328901;28;20038;-63
2023/10/07 21:21:41;;;;;;;21.75;11.32;;;;;;;;;;10328817;28;20038;-62
2023/10/07 21:26:42;;;;;;;21.95;10.43;;;;;;;;;;10328932;28;20042;-62
2023/10/07 21:31:42;;;;;;;17.30;10.27;;;;;;;;;;10328624;28;20378;-60
2023/10/07 21:36:43;;;;;;;16.15;10.18;;;;;;;;;;10328988;28;20494;-63
2023/10/07 21:41:43;;;;;;;19.42;10.25;;;;;;;;;;10327628;28;20066;-63
2023/10/07 21:46:44;;;;;;;22.10;10.88;;;;;;;;;;10328237;28;20037;-60
2023/10/07 21:51:45;;;;;;;17.15;9.98;;;;;;;;;;10327662;28;20437;-62
2023/10/07 21:56:45;;;;;;;22.08;10.80;;;;;;;;;;10327902;28;20383;-60
2023/10/07 22:01:46;;;;;;;24.60;10.05;;;;;;;;;;10327236;28;20499;-59
2023/10/07 22:06:49;;;;;;;20.15;10.38;;;;;;;;;;10326834;28;20501;-61
2023/10/07 22:11:49;;;;;;;20.52;10.52;;;;;;;;;;10326042;28;20097;-60
2023/10/07 22:16:51;;;;;;;27.73;10.43;;;;;;;;;;10327465;28;20052;-58
2023/10/07 22:21:51;;;;;;;24.08;10.43;;;;;;;;;;10325384;28;20027;-58
2023/10/07 22:26:52;;;;;;;18.13;9.65;;;;;;;;;;10324850;28;20034;-58
2023/10/07 22:31:54;;;;;;;28.58;9.82;;;;;;;;;;10324437;28;20033;-59
2023/10/07 22:36:59;;;;;;;24.77;10.40;;;;;;;;;;10326113;28;20053;-59
2023/10/07 22:42:11;;;;;;;19.35;10.02;;;;;;;;;;10325978;28;20030;-59
2023/10/07 22:47:12;;;;;;;22.33;10.73;;;;;;;;;;10326553;28;20390;-60
2023/10/07 22:52:13;;;;;;;16.50;10.32;;;;;;;;;;10326960;28;20030;-59
2023/10/07 22:57:13;;;;;;;18.10;10.30;;;;;;;;;;10326723;28;20088;-60
2023/10/07 23:02:25;;;;;;;19.67;9.93;;;;;;;;;;10326931;28;20034;-59
2023/10/07 23:07:27;;;;;;;18.58;10.45;;;;;;;;;;10325996;28;20054;-59
2023/10/07 23:12:30;;;;;;;15.10;10.48;;;;;;;;;;10324948;28;20192;-60
2023/10/07 23:17:30;;;;;;;15.98;10.45;;;;;;;;;;10327287;28;20030;-61
2023/10/07 23:22:38;;;;;;;18.40;10.35;;;;;;;;;;10325341;28;20467;-59
2023/10/07 23:27:43;;;;;;;17.00;10.57;;;;;;;;;;10326632;28;20034;-58
2023/10/07 23:32:46;;;;;;;17.45;10.32;;;;;;;;;;10326043;28;20042;-58
2023/10/07 23:37:59;;;;;;;20.48;10.05;;;;;;;;;;10328928;28;20033;-58
2023/10/07 23:43:09;;;;;;;15.00;10.30;;;;;;;;;;10333567;28;20030;-60
2023/10/07 23:48:11;;;;;;;20.35;11.30;;;;;;;;;;10332743;28;20053;-61
2023/10/07 23:53:20;;;;;;;13.60;10.07;;;;;;;;;;10333028;28;20080;-61
2023/10/07 23:58:22;;;;;;;12.98;9.63;;;;;;;;;;10332623;28;20390;-61
